Time;durP1;ratioP1;P1;durP2;ratioP2;P2;SDS_P1;SDS_P2;PMS_P1;PMS_P2;Temp;Humidity;BMP_temperature;BMP_pressure;BME280_temperature;BME280_humidity;BME280_pressure;Samples;Min_cycle;Max_cycle;Signal;HPM_P1;HPM_P2
2022/11/08 00:02:21;;;;;;;87.63;36.50;;;;;;;;;;5111132;27;20030;-73
2022/11/08 00:04:46;;;;;;;97.13;37.47;;;;;;;;;;5118880;27;20023;-73
2022/11/08 00:15:23;;;;;;;90.70;35.17;;;;;;;;;;5106127;28;20523;-71
2022/11/08 00:17:48;;;;;;;95.18;37.72;;;;;;;;;;5106363;27;20051;-72
2022/11/08 00:20:14;;;;;;;89.20;35.27;;;;;;;;;;5075717;28;20473;-71
2022/11/08 00:22:39;;;;;;;89.83;36.67;;;;;;;;;;5107194;27;20030;-71
2022/11/08 00:25:05;;;;;;;93.15;36.38;;;;;;;;;;5107757;28;20280;-71
2022/11/08 00:27:30;;;;;;;91.93;34.92;;;;;;;;;;5094975;27;20040;-71
2022/11/08 00:29:55;;;;;;;87.25;36.10;;;;;;;;;;5082280;28;20028;-71
2022/11/08 00:32:22;;;;;;;96.53;36.80;;;;;;;;;;5112198;27;20027;-71
2022/11/08 00:34:47;;;;;;;91.43;36.80;;;;;;;;;;5107103;27;20312;-71
2022/11/08 00:37:13;;;;;;;97.97;38.05;;;;;;;;;;5107983;27;20058;-71
2022/11/08 00:39:39;;;;;;;92.20;36.70;;;;;;;;;;5103718;27;20047;-71
2022/11/08 00:42:04;;;;;;;98.53;36.37;;;;;;;;;;5090823;27;20034;-71
2022/11/08 00:44:29;;;;;;;96.63;35.13;;;;;;;;;;5087868;28;20356;-71
2022/11/08 00:46:54;;;;;;;92.55;33.72;;;;;;;;;;5090043;27;20392;-71
2022/11/08 00:49:20;;;;;;;87.77;33.67;;;;;;;;;;5110399;27;20389;-71
2022/11/08 00:51:45;;;;;;;87.27;30.70;;;;;;;;;;5092619;27;20339;-71
2022/11/08 00:54:14;;;;;;;82.10;31.60;;;;;;;;;;5111638;27;20284;-72
2022/11/08 00:56:40;;;;;;;85.65;31.27;;;;;;;;;;5090509;27;20271;-71
2022/11/08 00:59:05;;;;;;;82.47;31.20;;;;;;;;;;5104822;27;20433;-72
2022/11/08 01:01:30;;;;;;;85.82;30.73;;;;;;;;;;5110216;27;20057;-71
2022/11/08 01:03:56;;;;;;;88.93;31.35;;;;;;;;;;5102818;27;20035;-71
2022/11/08 01:06:22;;;;;;;94.37;31.50;;;;;;;;;;5098552;27;20026;-72
2022/11/08 01:08:48;;;;;;;98.55;34.33;;;;;;;;;;5091684;28;20034;-71
2022/11/08 01:11:15;;;;;;;93.60;33.50;;;;;;;;;;5105811;27;20035;-72
2022/11/08 01:13:41;;;;;;;90.15;32.25;;;;;;;;;;5104142;27;20063;-72
2022/11/08 01:16:07;;;;;;;87.72;32.33;;;;;;;;;;5117112;27;20030;-71
2022/11/08 01:18:33;;;;;;;87.93;32.35;;;;;;;;;;5107272;27;20420;-72
2022/11/08 01:20:58;;;;;;;90.20;32.13;;;;;;;;;;5095444;27;20027;-72
2022/11/08 01:23:23;;;;;;;98.13;33.23;;;;;;;;;;5104306;28;20043;-72
2022/11/08 01:25:48;;;;;;;93.27;33.63;;;;;;;;;;5103615;27;20771;-72
2022/11/08 01:28:14;;;;;;;85.32;32.03;;;;;;;;;;5098840;28;20419;-71
2022/11/08 01:30:40;;;;;;;88.10;33.35;;;;;;;;;;5104779;27;20031;-71
2022/11/08 01:33:06;;;;;;;88.50;33.17;;;;;;;;;;5107242;27;20035;-72
2022/11/08 01:35:32;;;;;;;92.72;34.42;;;;;;;;;;5105228;27;20024;-72
2022/11/08 01:37:58;;;;;;;87.93;34.33;;;;;;;;;;5103473;27;20047;-72
2022/11/08 01:40:24;;;;;;;86.60;33.55;;;;;;;;;;5107697;27;20070;-72
2022/11/08 01:42:49;;;;;;;80.03;36.38;;;;;;;;;;5104167;28;20034;-71
2022/11/08 01:45:14;;;;;;;87.03;34.17;;;;;;;;;;5107487;27;20027;-72
2022/11/08 01:47:39;;;;;;;84.27;35.77;;;;;;;;;;5108755;28;20280;-71
2022/11/08 01:50:05;;;;;;;79.37;34.07;;;;;;;;;;5105492;27;20284;-71
2022/11/08 01:52:40;;;;;;;82.18;36.67;;;;;;;;;;5108957;27;20279;-72
2022/11/08 01:55:05;;;;;;;75.32;35.53;;;;;;;;;;5106934;27;20045;-72
2022/11/08 01:57:33;;;;;;;79.83;34.63;;;;;;;;;;5102875;28;20023;-71
2022/11/08 02:00:00;;;;;;;73.45;34.55;;;;;;;;;;5108230;27;20271;-71
2022/11/08 02:02:26;;;;;;;75.22;35.28;;;;;;;;;;5104128;28;20032;-72
2022/11/08 02:04:51;;;;;;;79.80;35.25;;;;;;;;;;5099211;28;20057;-71
2022/11/08 02:07:17;;;;;;;84.97;37.75;;;;;;;;;;5100830;28;20135;-71
2022/11/08 02:09:43;;;;;;;89.20;36.70;;;;;;;;;;5107915;28;20155;-69
2022/11/08 02:12:09;;;;;;;87.00;36.58;;;;;;;;;;5100804;28;20089;-69
2022/11/08 02:14:35;;;;;;;77.95;34.83;;;;;;;;;;5101638;28;20551;-71
2022/11/08 02:17:00;;;;;;;88.05;37.17;;;;;;;;;;5088324;28;20026;-72
2022/11/08 02:19:34;;;;;;;89.30;37.00;;;;;;;;;;5101193;28;20020;-72
2022/11/08 02:22:01;;;;;;;88.45;36.50;;;;;;;;;;5109451;28;20367;-69
2022/11/08 02:24:26;;;;;;;87.22;37.35;;;;;;;;;;5104206;28;20472;-69
2022/11/08 02:26:53;;;;;;;86.28;35.50;;;;;;;;;;5099325;28;20060;-68
2022/11/08 02:29:22;;;;;;;89.15;35.50;;;;;;;;;;5108520;28;20035;-69
2022/11/08 02:31:47;;;;;;;93.18;37.78;;;;;;;;;;5092943;28;20533;-68
2022/11/08 02:34:12;;;;;;;95.00;38.47;;;;;;;;;;5110842;28;20058;-68
2022/11/08 02:36:37;;;;;;;95.43;38.10;;;;;;;;;;5100727;28;20298;-67
2022/11/08 02:39:03;;;;;;;102.40;38.20;;;;;;;;;;5089250;28;20049;-68
2022/11/08 02:41:28;;;;;;;101.23;38.37;;;;;;;;;;5103913;28;20567;-68
2022/11/08 02:43:53;;;;;;;99.73;37.17;;;;;;;;;;5108745;28;20023;-68
2022/11/08 02:46:18;;;;;;;101.50;37.87;;;;;;;;;;5106596;28;20298;-68
2022/11/08 02:48:43;;;;;;;104.45;38.63;;;;;;;;;;5109806;27;20106;-68
2022/11/08 02:51:09;;;;;;;101.10;38.47;;;;;;;;;;5111661;27;20059;-68
2022/11/08 02:53:34;;;;;;;107.40;40.03;;;;;;;;;;5088889;28;20535;-69
2022/11/08 02:55:59;;;;;;;116.43;41.13;;;;;;;;;;5096657;28;20374;-67
2022/11/08 02:58:26;;;;;;;106.33;39.53;;;;;;;;;;5106713;28;20110;-68
2022/11/08 03:00:52;;;;;;;109.07;38.80;;;;;;;;;;5106164;27;20032;-68
2022/11/08 03:03:17;;;;;;;94.97;37.53;;;;;;;;;;5116732;27;20031;-68
2022/11/08 03:05:42;;;;;;;100.63;36.67;;;;;;;;;;5117178;27;20280;-68
2022/11/08 03:08:07;;;;;;;100.53;37.03;;;;;;;;;;5107699;27;20331;-68
2022/11/08 03:10:32;;;;;;;90.67;37.37;;;;;;;;;;5108810;27;20288;-68
2022/11/08 03:12:59;;;;;;;93.63;38.10;;;;;;;;;;5102666;27;20055;-68
2022/11/08 03:15:24;;;;;;;100.68;37.50;;;;;;;;;;5110142;27;20496;-69
2022/11/08 03:17:49;;;;;;;97.17;37.07;;;;;;;;;;5108732;27;20024;-68
2022/11/08 03:20:15;;;;;;;94.38;36.30;;;;;;;;;;5108185;27;20110;-68
2022/11/08 03:22:40;;;;;;;98.82;36.50;;;;;;;;;;5109630;27;20027;-68
2022/11/08 03:25:05;;;;;;;96.50;37.63;;;;;;;;;;5094152;28;20025;-68
2022/11/08 03:27:30;;;;;;;88.28;36.00;;;;;;;;;;5102858;27;20036;-68
2022/11/08 03:29:56;;;;;;;85.50;34.90;;;;;;;;;;5091176;27;20055;-68
2022/11/08 03:32:21;;;;;;;88.00;34.83;;;;;;;;;;5104148;27;20031;-68
2022/11/08 03:34:46;;;;;;;91.80;36.25;;;;;;;;;;5086481;28;20019;-68
2022/11/08 03:37:12;;;;;;;89.37;35.77;;;;;;;;;;5102238;27;20083;-68
2022/11/08 03:39:37;;;;;;;83.83;34.57;;;;;;;;;;5108236;27;20280;-68
2022/11/08 03:42:03;;;;;;;86.07;35.77;;;;;;;;;;5107490;27;20413;-68
2022/11/08 03:44:29;;;;;;;87.88;36.00;;;;;;;;;;5107961;27;20782;-68
2022/11/08 03:46:54;;;;;;;90.65;35.42;;;;;;;;;;5108983;27;20028;-68
2022/11/08 03:49:19;;;;;;;81.32;33.50;;;;;;;;;;5111051;27;20411;-68
2022/11/08 03:51:45;;;;;;;81.00;35.10;;;;;;;;;;5109947;27;20137;-68
2022/11/08 03:54:10;;;;;;;81.73;33.97;;;;;;;;;;5097218;27;20118;-69
2022/11/08 03:56:35;;;;;;;80.88;35.05;;;;;;;;;;5092565;28;20280;-68
2022/11/08 03:59:00;;;;;;;85.30;34.33;;;;;;;;;;5092297;27;20392;-68
2022/11/08 04:01:26;;;;;;;75.63;33.37;;;;;;;;;;5110801;27;20501;-68
2022/11/08 04:03:51;;;;;;;76.57;33.93;;;;;;;;;;5104168;27;20588;-68
2022/11/08 04:06:16;;;;;;;89.05;36.15;;;;;;;;;;5112136;27;20035;-68
2022/11/08 04:08:41;;;;;;;84.00;35.07;;;;;;;;;;5086519;28;20031;-68
2022/11/08 04:16:34;;;;;;;77.18;33.10;;;;;;;;;;5111055;27;20401;-69
2022/11/08 04:21:45;;;;;;;80.43;36.15;;;;;;;;;;5110050;27;20029;-68
2022/11/08 04:24:10;;;;;;;83.50;35.70;;;;;;;;;;5085455;28;20062;-68
2022/11/08 04:26:35;;;;;;;78.27;36.37;;;;;;;;;;5092054;28;20469;-68
2022/11/08 04:29:02;;;;;;;81.07;35.40;;;;;;;;;;5106957;27;20283;-67
2022/11/08 04:31:27;;;;;;;78.60;34.65;;;;;;;;;;5111040;27;20024;-68
2022/11/08 04:33:52;;;;;;;78.78;34.22;;;;;;;;;;5081760;28;20034;-68
2022/11/08 04:36:18;;;;;;;79.33;33.83;;;;;;;;;;5083524;28;20020;-68
2022/11/08 04:38:46;;;;;;;69.50;32.25;;;;;;;;;;5101027;27;20284;-69
2022/11/08 04:41:12;;;;;;;74.38;33.92;;;;;;;;;;5106007;27;20042;-69
2022/11/08 04:43:38;;;;;;;81.10;33.42;;;;;;;;;;5099999;27;20122;-68
2022/11/08 04:46:05;;;;;;;78.65;34.53;;;;;;;;;;5081362;27;20548;-68
2022/11/08 04:48:30;;;;;;;73.68;33.40;;;;;;;;;;5097957;28;20055;-68
2022/11/08 04:51:00;;;;;;;83.47;34.58;;;;;;;;;;5087981;28;20062;-67
2022/11/08 04:53:25;;;;;;;75.32;33.72;;;;;;;;;;5096182;28;21106;-68
2022/11/08 04:55:51;;;;;;;79.53;34.78;;;;;;;;;;5092197;27;20032;-68
2022/11/08 04:58:16;;;;;;;70.07;34.77;;;;;;;;;;5097926;27;20089;-67
2022/11/08 05:00:41;;;;;;;70.23;33.77;;;;;;;;;;5091713;28;20106;-68
2022/11/08 05:03:06;;;;;;;65.27;31.17;;;;;;;;;;5103104;27;20276;-66
2022/11/08 05:05:31;;;;;;;65.73;30.37;;;;;;;;;;5105521;27;20060;-68
2022/11/08 05:07:57;;;;;;;61.47;29.67;;;;;;;;;;5082091;28;20038;-68
2022/11/08 05:10:22;;;;;;;62.90;29.67;;;;;;;;;;5080266;28;20035;-68
2022/11/08 05:12:47;;;;;;;60.13;29.20;;;;;;;;;;5096811;27;20048;-67
2022/11/08 05:15:12;;;;;;;57.03;28.37;;;;;;;;;;5098027;27;20040;-67
2022/11/08 05:17:38;;;;;;;55.70;26.53;;;;;;;;;;5109678;27;20036;-67
2022/11/08 05:25:31;;;;;;;50.28;26.45;;;;;;;;;;5096174;27;20163;-68
2022/11/08 05:27:57;;;;;;;52.88;27.50;;;;;;;;;;5099056;27;20035;-68
2022/11/08 05:30:22;;;;;;;52.60;25.97;;;;;;;;;;5105588;27;20048;-67
2022/11/08 05:32:49;;;;;;;48.00;23.93;;;;;;;;;;5083864;27;20577;-67
2022/11/08 05:35:14;;;;;;;48.75;24.30;;;;;;;;;;5081445;28;20779;-68
2022/11/08 05:37:40;;;;;;;42.13;22.10;;;;;;;;;;5111027;27;20054;-68
2022/11/08 05:40:06;;;;;;;42.70;22.33;;;;;;;;;;5085146;28;20265;-68
2022/11/08 05:42:31;;;;;;;40.75;21.20;;;;;;;;;;5100046;27;20387;-68
2022/11/08 05:44:56;;;;;;;42.83;21.37;;;;;;;;;;5089529;28;20464;-68
2022/11/08 05:47:22;;;;;;;32.63;16.80;;;;;;;;;;5105409;27;20282;-67
2022/11/08 05:49:47;;;;;;;24.20;14.03;;;;;;;;;;5104458;27;20773;-67
2022/11/08 05:52:12;;;;;;;37.60;18.77;;;;;;;;;;5102598;28;20031;-69
2022/11/08 05:54:37;;;;;;;36.00;20.00;;;;;;;;;;5108970;28;20106;-69
2022/11/08 05:57:03;;;;;;;38.27;19.93;;;;;;;;;;5092031;27;20284;-67
2022/11/08 05:59:28;;;;;;;34.97;17.88;;;;;;;;;;5106133;28;20477;-67
2022/11/08 06:01:53;;;;;;;35.00;16.98;;;;;;;;;;5105507;27;20034;-66
2022/11/08 06:04:18;;;;;;;41.50;19.73;;;;;;;;;;5089059;28;20023;-67
2022/11/08 06:06:44;;;;;;;36.53;19.27;;;;;;;;;;5109694;27;20035;-69
2022/11/08 06:09:09;;;;;;;49.00;23.77;;;;;;;10.61;nan;101216.69;5108636;28;20287;-68
2022/11/08 06:11:34;;;;;;;83.85;40.38;;;;;;;;;;5107730;28;20038;-68
2022/11/08 06:13:59;;;;;;;62.97;31.43;;;;;;;;;;5104584;28;20139;-69
2022/11/08 06:16:25;;;;;;;1999.90;646.20;;;;;;;;;;5102960;28;20288;-69
2022/11/08 06:18:50;;;;;;;106.47;46.53;;;;;;;;;;5100812;28;20031;-69
2022/11/08 06:21:17;;;;;;;89.03;41.73;;;;;;;;;;5110463;28;20026;-67
2022/11/08 06:23:42;;;;;;;67.07;33.83;;;;;;;;;;5103879;27;20024;-69
2022/11/08 06:26:08;;;;;;;70.60;32.55;;;;;;;;;;5105816;27;20040;-69
2022/11/08 06:28:33;;;;;;;71.28;34.58;;;;;;;;;;5109459;27;20023;-68
2022/11/08 06:31:00;;;;;;;73.47;34.10;;;;;;;;;;5097472;28;20027;-68
2022/11/08 06:33:25;;;;;;;77.25;38.80;;;;;;;10.34;nan;101220.31;5088201;28;20047;-69
2022/11/08 06:35:50;;;;;;;81.55;37.22;;;;;;;;;;5103344;27;20059;-73
2022/11/08 06:38:16;;;;;;;87.03;40.92;;;;;;;;;;5114166;27;20031;-72
2022/11/08 06:40:41;;;;;;;77.60;35.57;;;;;;;;;;5105410;27;20027;-73
2022/11/08 06:43:08;;;;;;;81.93;37.80;;;;;;;;;;5100545;27;20032;-73
2022/11/08 06:45:35;;;;;;;87.30;38.13;;;;;;;;;;5101771;27;20039;-76
2022/11/08 06:48:01;;;;;;;78.78;37.38;;;;;;;;;;5113423;27;20023;-76
2022/11/08 06:50:27;;;;;;;81.53;37.17;;;;;;;;;;5102286;27;20030;-76
2022/11/08 06:53:02;;;;;;;89.05;38.28;;;;;;;;;;5103269;27;20462;-76
2022/11/08 06:55:28;;;;;;;84.47;38.83;;;;;;;;;;5096439;27;20026;-76
2022/11/08 06:57:54;;;;;;;79.93;34.80;;;;;;;;;;5107245;27;20020;-79
2022/11/08 07:00:20;;;;;;;81.13;34.47;;;;;;;;;;5110573;27;20027;-76
2022/11/08 07:02:50;;;;;;;77.43;32.15;;;;;;;;;;5114126;27;20099;-77
2022/11/08 07:05:15;;;;;;;70.57;31.70;;;;;;;;;;5098155;27;20019;-76
2022/11/08 07:07:40;;;;;;;74.45;33.63;;;;;;;;;;5092101;27;20639;-75
2022/11/08 07:10:06;;;;;;;73.65;33.35;;;;;;;;;;5088744;28;20038;-76
2022/11/08 07:12:31;;;;;;;74.15;32.80;;;;;;;;;;5103895;27;20055;-75
2022/11/08 07:14:56;;;;;;;70.23;32.50;;;;;;;;;;5089928;27;20024;-76
2022/11/08 07:17:21;;;;;;;64.47;29.67;;;;;;;;;;5109513;27;20081;-75
2022/11/08 07:19:46;;;;;;;65.78;28.73;;;;;;;;;;5089754;27;20124;-76
2022/11/08 07:22:12;;;;;;;69.63;31.33;;;;;;;;;;5091905;28;20073;-75
2022/11/08 07:24:37;;;;;;;62.87;28.57;;;;;;;;;;5104020;27;20358;-69
2022/11/08 07:27:02;;;;;;;62.90;28.97;;;;;;;;;;5107823;28;20432;-69
2022/11/08 07:29:27;;;;;;;61.00;27.20;;;;;;;;;;5104291;27;20911;-70
2022/11/08 07:31:53;;;;;;;55.47;27.27;;;;;;;;;;5101439;28;20312;-69
2022/11/08 07:34:19;;;;;;;47.33;22.20;;;;;;;;;;5106435;27;20111;-71
2022/11/08 07:36:45;;;;;;;45.75;20.75;;;;;;;;;;5103816;27;20418;-69
2022/11/08 07:39:10;;;;;;;42.47;19.55;;;;;;;;;;5110759;27;20031;-70
2022/11/08 07:41:35;;;;;;;36.33;18.30;;;;;;;;;;5109283;27;20051;-70
2022/11/08 07:44:01;;;;;;;41.20;19.93;;;;;;;;;;5116164;27;20349;-71
2022/11/08 07:46:26;;;;;;;43.60;20.97;;;;;;;;;;5102706;27;20112;-70
2022/11/08 07:48:51;;;;;;;44.05;20.77;;;;;;;;;;5109483;27;20058;-70
2022/11/08 07:51:16;;;;;;;40.70;20.33;;;;;;;;;;5105741;28;20189;-68
2022/11/08 07:53:42;;;;;;;45.47;21.87;;;;;;;;;;5106154;27;20028;-69
2022/11/08 07:56:07;;;;;;;46.85;22.17;;;;;;;;;;5109112;27;20481;-69
2022/11/08 07:58:33;;;;;;;47.40;23.83;;;;;;;;;;5091721;27;20031;-69
2022/11/08 08:01:02;;;;;;;56.78;24.20;;;;;;;;;;5108005;27;20627;-69
2022/11/08 08:03:28;;;;;;;42.28;20.38;;;;;;;;;;5103871;27;20149;-69
2022/11/08 08:05:53;;;;;;;42.35;21.80;;;;;;;;;;5084294;28;20124;-69
2022/11/08 08:08:19;;;;;;;44.15;20.38;;;;;;;;;;5090010;27;20055;-69
2022/11/08 08:10:44;;;;;;;37.65;18.48;;;;;;;;;;5093105;28;20027;-69
2022/11/08 08:13:09;;;;;;;37.93;18.07;;;;;;;;;;5112699;27;20044;-69
2022/11/08 08:15:34;;;;;;;41.03;19.50;;;;;;;;;;5089888;28;20102;-69
2022/11/08 08:18:01;;;;;;;36.07;18.50;;;;;;;;;;5093300;28;20305;-68
2022/11/08 08:20:27;;;;;;;30.65;15.65;;;;;;;11.77;nan;101267.00;5108644;27;20272;-69
2022/11/08 08:22:52;;;;;;;36.67;16.48;;;;;;;;;;5103472;27;20024;-69
2022/11/08 08:25:18;;;;;;;38.37;16.50;;;;;;;;;;5093572;27;20024;-69
2022/11/08 08:27:47;;;;;;;30.20;15.63;;;;;;;;;;5089196;27;20362;-69
2022/11/08 08:30:13;;;;;;;30.35;15.38;;;;;;;;;;5091198;28;20031;-69
2022/11/08 08:32:38;;;;;;;32.83;17.25;;;;;;;;;;5096022;27;20027;-68
2022/11/08 08:35:04;;;;;;;35.00;17.73;;;;;;;;;;5095452;28;20027;-70
2022/11/08 08:37:29;;;;;;;33.17;17.33;;;;;;;;;;5106127;27;20022;-69
2022/11/08 08:39:54;;;;;;;34.17;16.77;;;;;;;;;;5101024;27;20103;-69
2022/11/08 08:42:19;;;;;;;34.93;17.27;;;;;;;;;;5107417;27;20820;-69
2022/11/08 08:44:45;;;;;;;34.30;17.33;;;;;;;;;;5101663;27;20024;-68
2022/11/08 08:47:10;;;;;;;33.70;17.20;;;;;;;;;;5085216;28;20280;-68
2022/11/08 08:49:35;;;;;;;34.50;16.83;;;;;;;;;;5090860;28;20038;-75
2022/11/08 08:52:00;;;;;;;29.90;15.87;;;;;;;;;;5104727;27;20040;-75
2022/11/08 08:54:26;;;;;;;45.27;23.50;;;;;;;;;;5111950;27;20042;-75
2022/11/08 08:56:52;;;;;;;46.08;23.88;;;;;;;;;;5112853;27;20027;-69
2022/11/08 08:59:17;;;;;;;51.13;25.20;;;;;;;;;;5110121;27;20031;-69
2022/11/08 09:01:42;;;;;;;48.03;24.73;;;;;;;;;;5100552;27;20023;-69
2022/11/08 09:04:08;;;;;;;44.10;23.70;;;;;;;;;;5089295;28;20066;-69
2022/11/08 09:06:33;;;;;;;45.33;22.80;;;;;;;;;;5102343;27;20454;-76
2022/11/08 09:08:58;;;;;;;48.57;25.17;;;;;;;;;;5111542;27;20130;-76
2022/11/08 09:11:23;;;;;;;48.65;24.50;;;;;;;;;;5106206;27;20276;-75
2022/11/08 09:13:49;;;;;;;46.67;25.03;;;;;;;;;;5110521;27;20047;-75
2022/11/08 09:16:14;;;;;;;47.27;23.23;;;;;;;;;;5094936;28;20084;-75
2022/11/08 09:18:40;;;;;;;43.50;22.87;;;;;;;;;;5109047;27;20023;-75
2022/11/08 09:21:05;;;;;;;46.95;21.90;;;;;;;;;;5087935;28;20657;-69
2022/11/08 09:23:30;;;;;;;39.50;21.70;;;;;;;;;;5089032;28;20027;-69
2022/11/08 09:25:59;;;;;;;33.70;19.87;;;;;;;;;;5083486;28;20036;-69
2022/11/08 09:28:25;;;;;;;41.00;23.10;;;;;;;;;;5100814;28;20359;-69
2022/11/08 09:30:50;;;;;;;42.80;20.98;;;;;;;;;;5105965;27;20147;-69
2022/11/08 09:33:16;;;;;;;40.42;21.88;;;;;;;;;;5108945;27;20084;-69
2022/11/08 09:35:41;;;;;;;37.00;19.93;;;;;;;;;;5089066;27;20031;-69
2022/11/08 09:38:06;;;;;;;38.40;18.60;;;;;;;;;;5110411;27;20035;-69
2022/11/08 09:40:39;;;;;;;38.97;18.77;;;;;;;;;;5102947;27;20027;-69
2022/11/08 09:43:22;;;;;;;36.08;18.77;;;;;;;;;;5111768;27;20035;-69
2022/11/08 09:45:49;;;;;;;33.53;18.25;;;;;;;;;;5110515;27;20032;-70
2022/11/08 09:48:30;;;;;;;34.15;18.85;;;;;;;;;;5089803;28;20038;-70
2022/11/08 09:50:57;;;;;;;42.83;19.70;;;;;;;;;;5106189;27;20508;-70
2022/11/08 09:53:41;;;;;;;36.92;20.00;;;;;;;;;;5108304;27;20028;-69
2022/11/08 09:56:15;;;;;;;36.28;18.88;;;;;;;;;;5100822;28;20035;-69
2022/11/08 09:59:16;;;;;;;34.45;19.17;;;;;;;;;;5102692;27;21573;-69
2022/11/08 10:01:41;;;;;;;39.67;21.45;;;;;;;;;;4998525;28;20184;-75
2022/11/08 10:04:17;;;;;;;41.05;20.70;;;;;;;;;;4998153;28;20456;-76
2022/11/08 10:06:42;;;;;;;39.80;20.98;;;;;;;;;;5002242;28;20061;-75
2022/11/08 10:09:26;;;;;;;36.43;21.40;;;;;;;;;;5000176;28;20765;-75
2022/11/08 10:11:59;;;;;;;35.63;19.60;;;;;;;;;;4995173;28;20061;-75
2022/11/08 10:14:33;;;;;;;43.78;21.30;;;;;;;;;;5001068;28;20034;-75
2022/11/08 10:17:17;;;;;;;40.95;21.58;;;;;;;;;;5005219;28;20034;-75
2022/11/08 10:19:42;;;;;;;36.00;19.73;;;;;;;;;;4999496;28;20053;-73
2022/11/08 10:22:16;;;;;;;37.13;20.27;;;;;;;;;;5001669;28;20435;-68
2022/11/08 10:24:57;;;;;;;37.58;21.88;;;;;;;;;;5000657;28;20571;-68
2022/11/08 10:27:42;;;;;;;36.85;20.33;;;;;;;;;;4997067;28;20037;-68
2022/11/08 10:30:21;;;;;;;42.50;22.83;;;;;;;;;;4989430;28;20045;-68
2022/11/08 10:32:47;;;;;;;;;;;;;;;;;;4997767;28;20038;-68
2022/11/08 10:35:18;;;;;;;39.30;21.83;;;;;;;;;;5028578;28;19927;-69
2022/11/08 10:37:44;;;;;;;37.97;23.20;;;;;;;;;;5102716;28;20102;-75
2022/11/08 10:40:18;;;;;;;37.17;22.38;;;;;;;;;;5088555;28;20119;-76
2022/11/08 10:42:51;;;;;;;39.85;21.50;;;;;;;;;;5103589;28;20036;-75
2022/11/08 10:45:17;;;;;;;36.67;21.50;;;;;;;;;;5107772;28;20028;-76
2022/11/08 10:47:44;;;;;;;41.07;20.70;;;;;;;;;;5108051;28;20024;-75
2022/11/08 10:50:14;;;;;;;36.33;22.00;;;;;;;;;;5106761;28;20599;-69
2022/11/08 10:52:43;;;;;;;37.05;22.88;;;;;;;;;;5097743;28;20020;-69
2022/11/08 10:55:21;;;;;;;44.05;24.65;;;;;;;;;;5097161;28;20093;-69
2022/11/08 10:57:47;;;;;;;41.30;25.42;;;;;;;;;;5104319;28;20023;-70
2022/11/08 11:00:22;;;;;;;42.97;24.13;;;;;;;;;;5086564;28;20036;-70
2022/11/08 11:02:47;;;;;;;39.70;23.63;;;;;;;;;;5099877;28;20034;-69
2022/11/08 11:05:16;;;;;;;38.40;23.93;;;;;;;;;;5107428;28;20027;-69
2022/11/08 11:07:55;;;;;;;39.85;23.65;;;;;;;;;;5085828;28;20487;-71
2022/11/08 11:10:21;;;;;;;47.20;26.95;;;;;;;;;;5089042;28;20035;-70
2022/11/08 11:13:01;;;;;;;48.88;26.42;;;;;;;;;;5111395;27;20068;-71
2022/11/08 11:15:53;;;;;;;42.80;24.58;;;;;;;;;;5094558;28;20032;-71
2022/11/08 11:18:29;;;;;;;41.75;24.83;;;;;;;;;;5105173;27;20093;-70
2022/11/08 11:21:02;;;;;;;43.55;24.75;;;;;;;;;;5094783;28;20110;-71
2022/11/08 11:23:36;;;;;;;39.63;23.35;;;;;;;;;;5102891;27;20081;-68
2022/11/08 11:26:03;;;;;;;40.72;22.80;;;;;;;;;;5084696;28;20031;-67
2022/11/08 11:28:28;;;;;;;40.05;23.85;;;;;;;;;;5097522;27;20444;-70
2022/11/08 11:31:01;;;;;;;35.88;21.83;;;;;;;;;;5101535;27;20028;-70
2022/11/08 11:33:28;;;;;;;39.83;22.60;;;;;;;;;;5107593;28;20756;-67
2022/11/08 11:36:10;;;;;;;37.42;23.92;;;;;;;;;;5109235;27;20042;-74
2022/11/08 11:38:42;;;;;;;42.17;24.40;;;;;;;;;;5108134;27;20012;-78
2022/11/08 11:41:11;;;;;;;37.17;22.52;;;;;;;;;;5114197;27;20015;-74
2022/11/08 11:43:46;;;;;;;36.63;22.42;;;;;;;;;;5097789;28;20035;-74
2022/11/08 11:46:18;;;;;;;40.60;24.42;;;;;;;;;;5103774;28;20027;-75
2022/11/08 11:48:45;;;;;;;41.13;21.98;;;;;;;;;;5116753;27;20481;-75
2022/11/08 11:51:10;;;;;;;37.97;22.20;;;;;;;;;;5094130;28;20099;-74
2022/11/08 11:53:36;;;;;;;39.58;23.75;;;;;;;;;;5112654;27;20477;-74
2022/11/08 11:56:09;;;;;;;39.95;23.80;;;;;;;;;;5093866;27;20400;-74
2022/11/08 11:58:34;;;;;;;39.38;23.63;;;;;;;;;;5100922;27;20087;-74
2022/11/08 12:01:08;;;;;;;42.50;25.23;;;;;;;;;;5099041;28;20114;-73
2022/11/08 12:03:36;;;;;;;44.75;25.08;;;;;;;;;;5114715;27;20032;-74
2022/11/08 12:06:09;;;;;;;39.70;24.77;;;;;;;;;;5103058;27;20032;-74
2022/11/08 12:08:34;;;;;;;39.28;23.50;;;;;;;;;;5109979;27;20024;-75
2022/11/08 12:11:18;;;;;;;40.53;24.97;;;;;;;;;;5111942;27;20461;-75
2022/11/08 12:13:59;;;;;;;43.97;25.50;;;;;;;;;;5092117;28;20623;-75
2022/11/08 12:16:28;;;;;;;45.08;25.95;;;;;;;;;;5088050;27;20030;-75
2022/11/08 12:19:13;;;;;;;36.30;22.57;;;;;;;;;;5114186;27;20024;-74
2022/11/08 12:21:42;;;;;;;41.13;23.83;;;;;;;;;;5090305;27;20439;-73
2022/11/08 12:24:07;;;;;;;40.75;24.40;;;;;;;;;;5086440;27;20502;-74
2022/11/08 12:26:35;;;;;;;42.17;24.83;;;;;;;;;;5112940;27;20147;-75
2022/11/08 12:29:00;;;;;;;39.63;24.15;;;;;;;;;;5111561;27;20050;-74
2022/11/08 12:31:30;;;;;;;41.10;24.97;;;;;;;;;;5113367;27;20019;-76
2022/11/08 12:33:55;;;;;;;43.00;25.60;;;;;;;;;;5104221;27;20046;-75
2022/11/08 12:36:26;;;;;;;39.63;25.30;;;;;;;;;;5115037;27;20015;-75
2022/11/08 12:38:51;;;;;;;43.88;24.40;;;;;;;;;;5088594;28;20035;-75
2022/11/08 12:41:16;;;;;;;40.20;23.83;;;;;;;;;;5112577;27;20065;-74
2022/11/08 12:44:00;;;;;;;43.60;24.70;;;;;;;;;;5092977;28;20028;-75
2022/11/08 12:46:28;;;;;;;36.85;22.02;;;;;;;;;;5089833;28;20031;-76
2022/11/08 12:49:11;;;;;;;37.58;22.90;;;;;;;;;;5112324;27;20070;-75
2022/11/08 12:51:36;;;;;;;40.30;24.73;;;;;;;;;;5096804;27;20583;-75
2022/11/08 12:54:24;;;;;;;37.63;23.57;;;;;;;;;;5100725;27;20103;-75
2022/11/08 12:56:51;;;;;;;40.38;23.65;;;;;;;;;;5097088;27;20503;-75
2022/11/08 12:59:36;;;;;;;36.60;22.20;;;;;;;;;;5103702;27;20150;-75
2022/11/08 13:02:02;;;;;;;38.40;22.42;;;;;;;;;;5098422;27;20028;-75
2022/11/08 13:04:27;;;;;;;37.38;22.50;;;;;;;;;;5087840;28;20050;-75
2022/11/08 13:06:56;;;;;;;38.73;23.97;;;;;;;;;;5078840;28;20077;-75
2022/11/08 13:09:28;;;;;;;38.08;23.02;;;;;;;;;;5094583;27;20018;-75
2022/11/08 13:12:11;;;;;;;39.92;23.58;;;;;;;;;;5095237;28;20023;-75
2022/11/08 13:14:38;;;;;;;39.53;22.80;;;;;;;15.47;nan;101166.13;5098663;28;20024;-75
2022/11/08 13:17:07;;;;;;;32.75;20.45;;;;;;;;;;5083508;28;20516;-75
2022/11/08 13:19:51;;;;;;;36.20;22.38;;;;;;;;;;5081253;28;20031;-75
2022/11/08 13:22:28;;;;;;;36.72;21.77;;;;;;;;;;5104224;27;20320;-73
2022/11/08 13:24:56;;;;;;;36.20;22.02;;;;;;;;;;5100001;27;20148;-74
2022/11/08 13:27:23;;;;;;;35.55;22.58;;;;;;;;;;5078588;28;20030;-74
2022/11/08 13:29:49;;;;;;;35.65;21.13;;;;;;;;;;5100701;27;20103;-74
2022/11/08 13:32:26;;;;;;;41.22;24.38;;;;;;;;;;5097151;27;20817;-74
2022/11/08 13:35:26;;;;;;;39.05;22.92;;;;;;;;;;5100991;27;20792;-74
2022/11/08 13:38:00;;;;;;;40.80;24.25;;;;;;;;;;5031120;28;20028;-74
2022/11/08 13:40:35;;;;;;;37.67;22.92;;;;;;;;;;5029537;28;20037;-74
2022/11/08 13:43:15;;;;;;;40.70;23.73;;;;;;;;;;5035525;28;20029;-74
2022/11/08 13:45:40;;;;;;;38.35;23.10;;;;;;;;;;5032758;28;20038;-74
2022/11/08 13:48:29;;;;;;;38.88;23.05;;;;;;;;;;5014816;28;20145;-74
2022/11/08 13:50:55;;;;;;;38.70;22.95;;;;;;;;;;5029131;28;20502;-74
2022/11/08 13:53:20;;;;;;;42.63;23.75;;;;;;;;;;5032816;28;20115;-75
2022/11/08 13:55:47;;;;;;;35.77;22.03;;;;;;;;;;5035297;28;20457;-74
2022/11/08 13:58:27;;;;;;;38.83;22.90;;;;;;;;;;5030496;28;20099;-75
2022/11/08 14:00:53;;;;;;;39.60;22.02;;;;;;;;;;5031153;28;20063;-75
2022/11/08 14:03:33;;;;;;;37.97;22.30;;;;;;;;;;5028689;28;20617;-76
2022/11/08 14:06:05;;;;;;;42.95;22.95;;;;;;;;;;5013633;28;20139;-75
2022/11/08 14:09:00;;;;;;;38.28;22.27;;;;;;;;;;5029201;28;20041;-74
2022/11/08 14:11:28;;;;;;;38.78;23.30;;;;;;;;;;4986689;28;20216;-74
2022/11/08 14:14:12;;;;;;;44.05;25.48;;;;;;;;;;5042739;28;20056;-75
2022/11/08 14:16:41;;;;;;;46.47;25.17;;;;;;;;;;5020764;28;20055;-74
2022/11/08 14:19:19;;;;;;;44.85;26.77;;;;;;;;;;5041703;28;20025;-75
2022/11/08 14:21:51;;;;;;;49.78;26.15;;;;;;;;;;5033172;28;20033;-75
2022/11/08 14:24:19;;;;;;;47.13;26.33;;;;;;;;;;5013961;28;20025;-74
2022/11/08 14:26:45;;;;;;;48.97;27.25;;;;;;;;;;5037323;28;20475;-75
2022/11/08 14:29:14;;;;;;;53.95;27.58;;;;;;;;;;5039393;28;20132;-74
2022/11/08 14:31:40;;;;;;;47.83;26.33;;;;;;;;;;5039549;28;20048;-75
2022/11/08 14:34:05;;;;;;;48.93;27.00;;;;;;;;;;5040478;28;20073;-74
2022/11/08 14:36:31;;;;;;;48.47;25.90;;;;;;;;;;5035899;28;20654;-75
2022/11/08 14:39:02;;;;;;;49.92;26.35;;;;;;;;;;5021039;28;20030;-74
2022/11/08 14:41:28;;;;;;;53.13;26.30;;;;;;;;;;5028199;28;20116;-75